Time;durP1;ratioP1;P1;durP2;ratioP2;P2;SDS_P1;SDS_P2;PMS_P1;PMS_P2;Temp;Humidity;BMP_temperature;BMP_pressure;BME280_temperature;BME280_humidity;BME280_pressure;Samples;Min_cycle;Max_cycle;Signal;HPM_P1;HPM_P2
2023/12/03 00:01:50;;;;;;;1.00;1.00;;;;;;;-4.15;86.19;97534.50;5047170;28;20528;-72
2023/12/03 00:04:17;;;;;;;1.23;1.23;;;;;;;-4.15;85.64;97544.94;5047485;28;20502;-72
2023/12/03 00:06:45;;;;;;;1.23;1.23;;;;;;;-4.10;85.53;97541.09;5047767;28;20047;-72
2023/12/03 00:09:15;;;;;;;1.15;1.15;;;;;;;-4.17;86.17;97539.84;5049092;28;20600;-73
2023/12/03 00:11:43;;;;;;;1.25;1.25;;;;;;;-4.17;86.56;97542.47;5049516;28;20059;-72
2023/12/03 00:14:10;;;;;;;1.33;1.33;;;;;;;-4.14;86.87;97546.59;5046878;28;20055;-72
2023/12/03 00:16:38;;;;;;;0.45;0.45;;;;;;;-4.09;86.36;97552.34;5045556;28;20456;-72
2023/12/03 00:19:06;;;;;;;1.05;1.05;;;;;;;-4.07;86.18;97551.31;5047958;28;20037;-71
2023/12/03 00:21:33;;;;;;;0.30;0.30;;;;;;;-4.07;86.04;97547.88;5041801;28;20490;-72
2023/12/03 00:24:02;;;;;;;1.42;1.42;;;;;;;-4.04;86.56;97552.00;5047156;28;20124;-71
2023/12/03 00:26:31;;;;;;;0.85;0.85;;;;;;;-4.14;86.65;97544.84;5046119;28;20072;-72
2023/12/03 00:28:58;;;;;;;0.90;0.90;;;;;;;-4.13;86.66;97550.88;5048521;28;20051;-71
2023/12/03 00:31:26;;;;;;;0.95;0.95;;;;;;;-4.15;86.60;97560.56;5046590;28;20045;-72
2023/12/03 00:33:53;;;;;;;1.00;1.00;;;;;;;-4.07;86.74;97561.75;5046031;28;20153;-71
2023/12/03 00:36:21;;;;;;;1.15;1.15;;;;;;;-4.10;87.01;97559.34;5049075;28;20064;-71
2023/12/03 00:38:49;;;;;;;1.00;1.00;;;;;;;-4.11;87.08;97565.47;5047031;28;20118;-72
2023/12/03 00:41:16;;;;;;;0.95;0.95;;;;;;;-4.08;87.07;97567.88;5047849;28;20041;-72
2023/12/03 00:43:45;;;;;;;1.30;1.30;;;;;;;-4.07;87.22;97560.91;5047818;28;20116;-72
2023/12/03 00:46:13;;;;;;;1.17;1.17;;;;;;;-4.05;87.37;97561.63;5046343;28;20065;-71
2023/12/03 00:48:40;;;;;;;0.98;0.98;;;;;;;-3.99;86.75;97568.19;5044428;28;20049;-72
2023/12/03 00:51:08;;;;;;;1.05;1.05;;;;;;;-3.90;86.83;97573.59;5047221;28;20142;-72
2023/12/03 00:53:36;;;;;;;1.02;1.02;;;;;;;-3.87;86.30;97576.00;5046527;28;20141;-72
2023/12/03 00:56:04;;;;;;;0.93;0.93;;;;;;;-4.00;87.05;97584.75;5058017;28;20073;-73
2023/12/03 00:58:31;;;;;;;1.05;1.05;;;;;;;-4.00;86.85;97584.75;5051273;28;20049;-72
2023/12/03 01:01:00;;;;;;;1.13;1.13;;;;;;;-4.02;87.39;97584.84;5045044;28;20118;-72
2023/12/03 01:03:28;;;;;;;0.20;0.20;;;;;;;-3.96;87.57;97586.22;5045750;28;20442;-71
2023/12/03 01:05:56;;;;;;;0.73;0.73;;;;;;;-3.91;87.42;97586.72;5048049;28;20052;-71
2023/12/03 01:08:23;;;;;;;1.42;1.42;;;;;;;-3.92;87.23;97585.88;5051498;28;20037;-72
2023/12/03 01:10:51;;;;;;;0.95;0.95;;;;;;;-3.88;87.35;97591.75;5045167;28;20080;-72
2023/12/03 01:13:19;;;;;;;1.17;1.17;;;;;;;-3.90;87.67;97588.41;5051206;28;20513;-72
2023/12/03 01:15:48;;;;;;;0.90;0.90;;;;;;;-3.95;87.43;97596.53;5047528;28;20044;-72
2023/12/03 01:18:18;;;;;;;1.02;1.02;;;;;;;-3.96;87.74;97592.28;5049767;28;20069;-72
2023/12/03 01:20:45;;;;;;;1.10;1.10;;;;;;;-3.85;87.50;97596.75;5049273;28;20044;-72
2023/12/03 01:23:13;;;;;;;1.23;1.23;;;;;;;-3.90;87.88;97598.81;5051044;28;20120;-73
2023/12/03 01:25:41;;;;;;;1.73;1.73;;;;;;;-3.90;87.07;97598.81;5053462;28;20094;-72
2023/12/03 01:28:08;;;;;;;0.95;0.95;;;;;;;-3.95;87.71;97613.94;5050079;28;20052;-71
2023/12/03 01:30:36;;;;;;;1.08;1.08;;;;;;;-3.95;87.28;97620.00;5044940;28;20049;-72
2023/12/03 01:33:03;;;;;;;1.05;1.05;;;;;;;-3.92;88.01;97617.16;5044413;28;20087;-72
2023/12/03 01:35:32;;;;;;;1.13;1.13;;;;;;;-3.89;88.04;97614.34;5047454;28;20044;-72
2023/12/03 01:38:02;;;;;;;1.05;1.05;;;;;;;-3.89;87.43;97616.13;5048204;28;20044;-72
2023/12/03 01:40:29;;;;;;;0.28;0.28;;;;;;;-3.92;87.71;97608.50;5043802;28;20406;-71
2023/12/03 01:42:57;;;;;;;1.02;1.02;;;;;;;-3.93;87.94;97610.28;5047004;28;20053;-72
2023/12/03 01:45:24;;;;;;;0.80;0.80;;;;;;;-3.87;87.81;97627.28;5045214;28;20050;-71
2023/12/03 01:47:52;;;;;;;1.02;1.02;;;;;;;-3.85;87.77;97622.81;5045430;28;20060;-72
2023/12/03 01:50:20;;;;;;;0.90;0.90;;;;;;;-3.87;87.57;97622.91;5047900;28;20033;-71
2023/12/03 01:52:50;;;;;;;1.00;1.00;;;;;;;-3.85;87.90;97630.63;5044704;28;20045;-72
2023/12/03 01:55:18;;;;;;;0.93;0.93;;;;;;;-3.84;87.52;97637.50;5052457;28;20049;-71
2023/12/03 01:57:46;;;;;;;1.20;1.20;;;;;;;-3.80;87.17;97638.94;5055140;28;20052;-72
2023/12/03 02:00:14;;;;;;;1.10;1.10;;;;;;;-3.81;86.99;97635.50;5055447;28;20075;-72
2023/12/03 02:02:41;;;;;;;1.40;1.40;;;;;;;-3.77;87.59;97643.97;5056793;28;20055;-73
2023/12/03 02:05:09;;;;;;;1.10;1.10;;;;;;;-3.76;87.13;97637.81;5047860;28;20041;-71
2023/12/03 02:07:37;;;;;;;0.93;0.93;;;;;;;-3.75;87.07;97642.09;5046524;28;20090;-72
2023/12/03 02:10:07;;;;;;;2.63;2.53;;;;;;;-3.71;87.15;97638.31;5045978;28;20064;-72
2023/12/03 02:12:35;;;;;;;1.05;1.05;;;;;;;-3.67;86.69;97647.63;5046067;28;20501;-71
2023/12/03 02:15:03;;;;;;;1.13;1.13;;;;;;;-3.66;86.53;97659.72;5048280;28;20406;-75
2023/12/03 02:17:31;;;;;;;1.05;1.05;;;;;;;-3.68;86.76;97651.16;5049277;28;20065;-71
2023/12/03 02:19:59;;;;;;;1.25;1.25;;;;;;;-3.66;87.08;97661.50;5048946;28;20135;-71
2023/12/03 02:22:26;;;;;;;1.17;1.17;;;;;;;-3.70;86.45;97653.88;5052358;28;20040;-71
2023/12/03 02:24:55;;;;;;;1.20;1.20;;;;;;;-3.71;86.50;97657.41;5050708;28;20057;-71
2023/12/03 02:27:23;;;;;;;0.70;0.70;;;;;;;-3.70;86.57;97655.63;5049564;28;20047;-72
2023/12/03 02:29:50;;;;;;;1.40;1.40;;;;;;;-3.72;86.30;97662.72;5064722;28;20103;-70
2023/12/03 02:32:18;;;;;;;1.55;1.55;;;;;;;-3.66;86.19;97661.50;5048812;28;20036;-71
2023/12/03 02:34:45;;;;;;;0.90;0.90;;;;;;;-3.63;85.91;97662.09;5051582;28;20045;-75
2023/12/03 02:37:13;;;;;;;1.30;1.30;;;;;;;-3.59;85.51;97658.34;5050506;28;20042;-71
2023/12/03 02:39:41;;;;;;;1.33;1.33;;;;;;;-3.57;85.55;97659.06;5046171;28;20047;-71
2023/12/03 02:42:10;;;;;;;0.55;0.55;;;;;;;-3.57;85.42;97661.69;5046738;28;20430;-71
2023/12/03 02:44:37;;;;;;;0.85;0.85;;;;;;;-3.52;85.19;97659.56;5050984;28;20064;-71
2023/12/03 02:47:05;;;;;;;1.20;1.20;;;;;;;-3.57;85.42;97651.25;5048693;28;20132;-72
2023/12/03 02:49:33;;;;;;;1.13;1.13;;;;;;;-3.58;85.27;97646.97;5049745;28;20044;-72
2023/12/03 02:52:01;;;;;;;1.00;1.00;;;;;;;-3.59;85.96;97645.31;5047798;28;20056;-71
2023/12/03 02:54:28;;;;;;;1.00;1.00;;;;;;;-3.56;85.88;97642.50;5049700;28;20044;-72
2023/12/03 02:56:56;;;;;;;0.80;0.80;;;;;;;-3.54;85.63;97651.06;5049854;28;20110;-71
2023/12/03 02:59:25;;;;;;;1.10;1.10;;;;;;;-3.57;86.13;97651.25;5046658;28;20597;-72
2023/12/03 03:01:52;;;;;;;1.60;1.60;;;;;;;-3.52;85.70;97664.78;5048786;28;20064;-71
2023/12/03 03:04:20;;;;;;;1.08;1.08;;;;;;;-3.52;86.07;97658.75;5046936;28;20044;-71
2023/12/03 03:06:48;;;;;;;1.02;1.02;;;;;;;-3.58;85.90;97665.22;5052645;28;20383;-71
2023/12/03 03:09:15;;;;;;;0.90;0.90;;;;;;;-3.58;86.14;97673.06;5045525;28;20055;-72
2023/12/03 03:11:43;;;;;;;1.10;1.10;;;;;;;-3.56;85.35;97663.34;5050399;28;20037;-71
2023/12/03 03:14:10;;;;;;;1.08;1.08;;;;;;;-3.57;85.42;97666.91;5048168;28;20045;-72
2023/12/03 03:16:39;;;;;;;1.25;1.25;;;;;;;-3.56;85.11;97678.16;5050375;28;20041;-72
2023/12/03 03:19:07;;;;;;;0.85;0.85;;;;;;;-3.57;85.24;97666.06;5053873;28;20057;-71
2023/12/03 03:21:38;;;;;;;1.42;1.42;;;;;;;-3.61;85.40;97668.03;5052221;28;20060;-71
2023/12/03 03:24:06;;;;;;;0.95;0.95;;;;;;;-3.67;85.46;97668.47;5050566;28;20606;-71
2023/12/03 03:26:34;;;;;;;0.20;0.20;;;;;;;-3.63;85.20;97682.16;5053414;28;20473;-71
2023/12/03 03:29:01;;;;;;;0.80;0.80;;;;;;;-3.59;85.15;97679.22;5050615;28;20095;-71
2023/12/03 03:31:29;;;;;;;0.98;0.98;;;;;;;-3.58;85.05;97677.44;5054136;28;20120;-71
2023/12/03 03:34:00;;;;;;;1.17;1.17;;;;;;;-3.57;85.00;97672.13;5051297;28;20060;-71
2023/12/03 03:36:28;;;;;;;0.88;0.88;;;;;;;-3.56;84.73;97675.56;5050018;28;20110;-71
2023/12/03 03:38:56;;;;;;;0.75;0.75;;;;;;;-3.54;84.86;97681.50;5047268;28;20049;-71
2023/12/03 03:41:23;;;;;;;1.08;1.08;;;;;;;-3.56;84.75;97675.56;5049778;28;20045;-72
2023/12/03 03:43:51;;;;;;;1.25;1.25;;;;;;;-3.57;84.65;97679.94;5049177;28;20060;-72
2023/12/03 03:46:19;;;;;;;0.85;0.85;;;;;;;-3.56;84.23;97679.00;5049316;28;20045;-72
2023/12/03 03:48:46;;;;;;;1.15;1.15;;;;;;;-3.53;84.31;97684.00;5049939;28;20090;-74
2023/12/03 03:51:15;;;;;;;0.90;0.90;;;;;;;-3.54;84.31;97686.72;5067833;28;20048;-72
2023/12/03 03:53:43;;;;;;;0.98;0.98;;;;;;;-3.51;84.04;97684.72;5047518;28;20559;-72
2023/12/03 03:56:11;;;;;;;1.25;1.25;;;;;;;-3.53;84.40;97686.59;5049247;28;20037;-72
2023/12/03 03:58:39;;;;;;;1.05;1.05;;;;;;;-3.56;84.78;97688.59;5047451;28;20442;-73
2023/12/03 04:01:08;;;;;;;1.02;1.02;;;;;;;-3.58;84.63;97693.91;5047150;28;20601;-73
2023/12/03 04:03:36;;;;;;;1.27;1.27;;;;;;;-3.50;84.51;97689.00;5048984;28;20044;-73
2023/12/03 04:06:04;;;;;;;0.50;0.50;;;;;;;-3.49;84.62;97700.28;5047999;28;20519;-72
2023/12/03 04:08:34;;;;;;;0.85;0.85;;;;;;;-3.53;84.33;97697.03;5047900;28;20048;-72
2023/12/03 04:11:03;;;;;;;0.20;0.20;;;;;;;-3.53;84.26;97697.03;5048791;28;20433;-73
2023/12/03 04:13:30;;;;;;;1.17;1.17;;;;;;;-3.57;84.58;97692.97;5046603;28;20063;-72
2023/12/03 04:15:58;;;;;;;1.10;1.10;;;;;;;-3.56;84.55;97693.81;5046696;28;20053;-72
2023/12/03 04:18:26;;;;;;;1.17;1.17;;;;;;;-3.51;84.45;97702.13;5047356;28;20084;-73
2023/12/03 04:20:53;;;;;;;1.50;1.50;;;;;;;-3.49;84.78;97702.88;5047410;28;20048;-72
2023/12/03 04:23:21;;;;;;;1.02;1.02;;;;;;;-3.53;84.16;97699.63;5045304;28;20462;-72
2023/12/03 04:25:50;;;;;;;1.30;1.30;;;;;;;-3.54;84.39;97700.59;5047042;28;20045;-72
2023/12/03 04:28:18;;;;;;;1.27;1.27;;;;;;;-3.53;84.54;97701.44;5047473;28;20048;-74
2023/12/03 04:30:45;;;;;;;1.45;1.45;;;;;;;-3.54;84.80;97708.44;5045588;28;20045;-72
2023/12/03 04:33:13;;;;;;;0.30;0.30;;;;;;;-3.50;84.30;97694.22;5048993;28;20413;-73
2023/12/03 04:35:41;;;;;;;0.82;0.82;;;;;;;-3.53;84.79;97696.22;5048631;28;20123;-73
2023/12/03 04:38:08;;;;;;;1.30;1.30;;;;;;;-3.62;84.83;97695.06;5047185;28;20405;-73
2023/12/03 04:40:36;;;;;;;1.35;1.35;;;;;;;-3.61;84.36;97694.13;5048632;28;20051;-73
2023/12/03 04:43:05;;;;;;;0.38;0.38;;;;;;;-3.58;84.80;97693.91;5045148;28;20989;-72
2023/12/03 04:45:32;;;;;;;0.35;0.35;;;;;;;-3.59;84.73;97684.41;5047723;28;20418;-72
2023/12/03 04:48:00;;;;;;;1.10;1.10;;;;;;;-3.59;84.59;97694.00;5046990;28;20498;-72
2023/12/03 04:50:28;;;;;;;0.93;0.93;;;;;;;-3.54;84.40;97710.19;5049156;28;20045;-72
2023/12/03 04:52:56;;;;;;;0.63;0.63;;;;;;;-3.56;84.42;97710.28;5069743;22;20421;-73
2023/12/03 04:55:23;;;;;;;0.98;0.98;;;;;;;-3.51;84.49;97715.19;5048561;28;20079;-72
2023/12/03 04:57:51;;;;;;;0.90;0.90;;;;;;;-3.56;84.71;97714.69;5046205;28;20116;-73
2023/12/03 05:00:20;;;;;;;0.70;0.70;;;;;;;-3.58;84.68;97717.38;5047699;28;20095;-74
2023/12/03 05:02:48;;;;;;;1.23;1.23;;;;;;;-3.61;84.27;97727.19;5047541;28;20051;-71
2023/12/03 05:05:15;;;;;;;1.17;1.17;;;;;;;-3.57;84.70;97723.44;5049602;28;20041;-72
2023/12/03 05:07:43;;;;;;;1.05;1.05;;;;;;;-3.58;84.63;97713.94;5046474;28;20037;-73
2023/12/03 05:10:11;;;;;;;0.40;0.40;;;;;;;-3.55;84.61;97724.16;5045969;28;20462;-73
2023/12/03 05:12:38;;;;;;;1.00;1.00;;;;;;;-3.56;84.79;97722.50;5048263;28;20087;-72
2023/12/03 05:15:07;;;;;;;1.17;1.17;;;;;;;-3.60;85.18;97729.69;5043353;28;20519;-72
2023/12/03 05:17:36;;;;;;;1.17;1.17;;;;;;;-3.53;84.91;97725.72;5044996;28;20079;-73
2023/12/03 05:20:08;;;;;;;1.40;1.40;;;;;;;-3.49;84.75;97729.78;5047778;28;20114;-71
2023/12/03 05:22:35;;;;;;;1.27;1.27;;;;;;;-3.41;84.61;97727.50;5047954;28;20051;-73
2023/12/03 05:25:03;;;;;;;1.17;1.17;;;;;;;-3.43;84.41;97724.19;5044485;28;20133;-74
2023/12/03 05:27:31;;;;;;;1.65;1.65;;;;;;;-3.41;84.10;97732.72;5043954;28;20136;-72
2023/12/03 05:30:00;;;;;;;0.90;0.90;;;;;;;-3.45;84.52;97733.03;5045941;28;20099;-72
2023/12/03 05:32:27;;;;;;;1.25;1.25;;;;;;;-3.40;83.91;97737.00;5045968;28;20033;-73
2023/12/03 05:34:56;;;;;;;1.15;1.15;;;;;;;-3.43;83.62;97731.16;5047719;28;20045;-72
2023/12/03 05:37:28;;;;;;;0.88;0.88;;;;;;;-3.48;84.10;97733.25;5047395;28;20040;-72
2023/12/03 05:39:56;;;;;;;1.17;1.17;;;;;;;-3.50;83.86;97735.94;5045810;28;20045;-73
2023/12/03 05:42:23;;;;;;;1.05;1.05;;;;;;;-3.43;83.55;97733.78;5046645;28;20045;-72
2023/12/03 05:44:51;;;;;;;1.00;1.00;;;;;;;-3.43;83.46;97732.00;5044984;28;20079;-73
2023/12/03 05:47:18;;;;;;;0.93;0.93;;;;;;;-3.48;84.01;97739.28;5044158;28;20040;-70
2023/12/03 05:49:46;;;;;;;1.58;1.58;;;;;;;-3.42;83.57;97736.25;5051382;28;20055;-72
2023/12/03 05:52:16;;;;;;;1.30;1.30;;;;;;;-3.39;83.28;97745.66;5047836;28;20049;-70
2023/12/03 05:54:44;;;;;;;0.85;0.85;;;;;;;-3.36;83.34;97745.44;5047765;28;20505;-70
2023/12/03 05:57:12;;;;;;;1.40;1.40;;;;;;;-3.44;83.59;97742.53;5046428;28;20044;-70
2023/12/03 05:59:39;;;;;;;1.15;1.15;;;;;;;-3.43;84.17;97747.66;5043324;28;20057;-69
2023/12/03 06:02:07;;;;;;;0.70;0.70;;;;;;;-3.41;83.55;97737.94;5044351;28;20501;-70
2023/12/03 06:04:35;;;;;;;1.23;1.23;;;;;;;-3.43;83.30;97742.44;5061860;28;20075;-70
2023/12/03 06:07:02;;;;;;;1.05;1.05;;;;;;;-3.45;83.52;97752.13;5045817;28;20063;-70
2023/12/03 06:09:31;;;;;;;1.25;1.25;;;;;;;-3.44;83.31;97761.63;5042302;28;20050;-70
2023/12/03 06:12:00;;;;;;;1.25;1.25;;;;;;;-3.43;83.55;97757.25;5046759;28;20132;-72
2023/12/03 06:14:27;;;;;;;1.05;1.05;;;;;;;-3.42;83.21;97762.34;5044757;28;20049;-70
2023/12/03 06:16:55;;;;;;;1.45;1.45;;;;;;;-3.42;82.86;97761.50;5048440;28;20045;-70
2023/12/03 06:19:23;;;;;;;1.02;1.02;;;;;;;-3.48;83.02;97767.97;5048472;28;20517;-70
2023/12/03 06:21:50;;;;;;;1.13;1.13;;;;;;;-3.42;82.40;97766.72;5050521;28;20048;-70
2023/12/03 06:24:18;;;;;;;1.65;1.65;;;;;;;-3.44;83.06;97769.47;5044655;28;20072;-70
2023/12/03 06:26:47;;;;;;;1.15;1.15;;;;;;;-3.39;82.74;97780.41;5046809;28;21158;-72
2023/12/03 06:29:15;;;;;;;0.88;0.88;;;;;;;-3.46;82.65;97773.94;5043785;28;20128;-71
2023/12/03 06:31:42;;;;;;;1.15;1.15;;;;;;;-3.44;82.75;97779.06;5044273;28;20051;-70
2023/12/03 06:34:11;;;;;;;1.23;1.23;;;;;;;-3.49;82.90;97784.56;5043657;28;20513;-70
2023/12/03 06:36:39;;;;;;;1.00;1.00;;;;;;;-3.54;83.60;97781.44;5044508;28;20045;-70
2023/12/03 06:39:07;;;;;;;1.67;1.67;;;;;;;-3.55;83.80;97784.16;5039879;28;20529;-71
2023/12/03 06:41:35;;;;;;;1.85;1.85;;;;;;;-3.53;84.56;97783.09;5038884;28;20044;-70
2023/12/03 06:44:04;;;;;;;1.48;1.48;;;;;;;-3.49;84.08;97786.34;5043225;28;20045;-71
2023/12/03 06:46:39;;;;;;;1.40;1.40;;;;;;;-3.51;85.08;97789.03;5045267;28;20045;-70
2023/12/03 06:49:06;;;;;;;1.45;1.45;;;;;;;-3.53;84.76;97790.91;5052362;28;20556;-70
2023/12/03 06:51:37;;;;;;;0.98;0.98;;;;;;;-3.51;84.86;97788.22;5053273;28;20045;-71
2023/12/03 06:54:05;;;;;;;1.23;1.23;;;;;;;-3.56;84.38;97801.56;5051457;28;20072;-69
2023/12/03 06:56:33;;;;;;;1.33;1.33;;;;;;;-3.57;84.46;97778.19;5063180;28;20040;-70
2023/12/03 06:59:01;;;;;;;1.33;1.33;;;;;;;-3.56;84.33;97804.19;5043610;28;20401;-72
2023/12/03 07:01:29;;;;;;;0.80;0.80;;;;;;;-3.56;84.62;97806.78;5046667;28;20072;-73
2023/12/03 07:03:57;;;;;;;1.13;1.13;;;;;;;-3.51;84.59;97803.84;5046243;28;20130;-72
2023/12/03 07:06:25;;;;;;;0.98;0.98;;;;;;;-3.51;84.43;97815.13;5049515;28;20043;-70
2023/12/03 07:08:52;;;;;;;0.93;0.93;;;;;;;-3.50;84.50;97816.81;5049818;28;20042;-72
2023/12/03 07:11:20;;;;;;;0.45;0.45;;;;;;;-3.59;84.64;97814.81;5046532;28;20473;-70
2023/12/03 07:13:48;;;;;;;1.20;1.20;;;;;;;-3.61;85.31;97805.41;5048819;28;20051;-71
2023/12/03 07:16:15;;;;;;;1.25;1.25;;;;;;;-3.58;85.84;97811.25;5045454;28;20129;-71
2023/12/03 07:18:44;;;;;;;1.15;1.15;;;;;;;-3.61;86.47;97808.84;5045833;28;20056;-72
2023/12/03 07:21:12;;;;;;;1.23;1.23;;;;;;;-3.65;87.11;97815.22;5039396;28;20059;-72
2023/12/03 07:23:39;;;;;;;1.42;1.42;;;;;;;-3.66;87.33;97818.78;5038219;28;20053;-71
2023/12/03 07:26:10;;;;;;;0.90;0.90;;;;;;;-3.69;86.54;97818.97;5047096;28;20048;-72
2023/12/03 07:28:38;;;;;;;0.82;0.82;;;;;;;-3.70;86.49;97822.50;5044580;28;20112;-72
2023/12/03 07:31:06;;;;;;;0.95;0.95;;;;;;;-3.67;87.02;97826.69;5043605;28;20549;-72
2023/12/03 07:33:34;;;;;;;0.30;0.30;;;;;;;-3.65;86.67;97817.84;5046345;28;20411;-69
2023/12/03 07:36:03;;;;;;;1.08;1.08;;;;;;;-3.58;86.39;97828.69;5047312;28;20049;-72
2023/12/03 07:38:32;;;;;;;1.23;1.23;;;;;;;-3.55;86.23;97831.94;5044097;28;20498;-72
2023/12/03 07:40:59;;;;;;;1.80;1.80;;;;;;;-3.53;85.63;97839.66;5046854;28;20044;-71
2023/12/03 07:43:27;;;;;;;1.20;1.20;;;;;;;-3.52;85.73;97833.47;5047276;28;20044;-69
2023/12/03 07:45:55;;;;;;;1.23;1.23;;;;;;;-3.48;85.62;97830.59;5040349;28;20410;-72
2023/12/03 07:48:22;;;;;;;0.93;0.93;;;;;;;-3.45;85.41;97826.94;5060997;28;20057;-71
2023/12/03 07:50:50;;;;;;;0.77;0.77;;;;;;;-3.50;85.70;97834.22;5045845;28;20409;-72
2023/12/03 07:53:19;;;;;;;0.82;0.82;;;;;;;-3.49;85.59;97833.28;5047055;28;20049;-72
2023/12/03 07:55:46;;;;;;;2.05;2.05;;;;;;;-3.53;85.69;97847.50;5044440;28;20045;-72
2023/12/03 07:58:14;;;;;;;1.05;1.05;;;;;;;-3.52;86.40;97847.34;5046056;28;20099;-71
2023/12/03 08:00:42;;;;;;;1.13;1.13;;;;;;;-3.50;85.88;97842.88;5043356;28;20056;-71
2023/12/03 08:03:09;;;;;;;1.30;1.30;;;;;;;-3.48;85.79;97854.06;5042561;28;20136;-72
2023/12/03 08:05:37;;;;;;;1.25;1.25;;;;;;;-3.47;85.98;97858.34;5042946;28;20127;-72
2023/12/03 08:08:05;;;;;;;0.93;0.93;;;;;;;-3.49;86.13;97856.75;5042974;28;20099;-72
2023/12/03 08:10:33;;;;;;;0.88;0.88;;;;;;;-3.45;86.14;97855.63;5045941;28;20393;-71
2023/12/03 08:13:01;;;;;;;1.35;1.35;;;;;;;-3.47;86.17;97854.91;5043334;28;20144;-71
2023/12/03 08:15:29;;;;;;;1.15;1.15;;;;;;;-3.49;86.72;97868.03;5043960;28;20121;-72
2023/12/03 08:17:56;;;;;;;0.95;0.95;;;;;;;-3.38;86.24;97862.09;5044676;28;20571;-70
2023/12/03 08:20:24;;;;;;;1.00;1.00;;;;;;;-3.41;86.55;97860.53;5045591;28;20041;-71
2023/12/03 08:22:51;;;;;;;1.23;1.23;;;;;;;-3.45;86.42;97873.91;5045486;28;20048;-72
2023/12/03 08:25:19;;;;;;;1.00;1.00;;;;;;;-3.47;87.14;97866.16;5039910;28;20103;-70
2023/12/03 08:27:48;;;;;;;1.17;1.17;;;;;;;-3.48;87.01;97864.50;5047685;28;20114;-71
2023/12/03 08:30:17;;;;;;;1.48;1.48;;;;;;;-3.47;86.97;97863.56;5043484;28;20063;-71
2023/12/03 08:32:45;;;;;;;1.27;1.27;;;;;;;-3.44;86.90;97865.13;5044959;28;20615;-72
2023/12/03 08:35:12;;;;;;;1.33;1.33;;;;;;;-3.39;86.33;97863.88;5044705;28;20670;-70
2023/12/03 08:37:40;;;;;;;1.33;1.33;;;;;;;-3.36;86.46;97868.91;5046505;28;20053;-70
2023/12/03 08:40:09;;;;;;;0.98;0.98;;;;;;;-3.37;86.01;97872.44;5044437;28;20040;-69
2023/12/03 08:42:39;;;;;;;1.08;1.08;;;;;;;-3.38;86.11;97862.94;5033984;28;20038;-69
2023/12/03 08:45:08;;;;;;;1.40;1.40;;;;;;;-3.29;86.47;97863.25;5035865;28;20115;-70
2023/12/03 08:47:36;;;;;;;1.65;1.65;;;;;;;-3.21;86.09;97868.78;5040048;28;20068;-69
2023/12/03 08:50:05;;;;;;;1.08;1.08;;;;;;;-3.23;84.64;97866.31;5040991;28;20092;-72
2023/12/03 08:52:33;;;;;;;1.15;1.15;;;;;;;-3.12;84.75;97878.66;5039855;28;20147;-70
2023/12/03 08:55:02;;;;;;;0.95;0.95;;;;;;;-3.11;83.94;97872.47;5037842;28;20048;-70
2023/12/03 08:57:30;;;;;;;1.98;1.98;;;;;;;-3.04;83.93;97877.19;5040424;28;20033;-70
2023/12/03 08:59:58;;;;;;;1.45;1.45;;;;;;;-3.07;84.22;97876.53;5039576;28;20045;-69
2023/12/03 09:02:27;;;;;;;1.40;1.40;;;;;;;-2.99;84.35;97876.84;5037760;28;20045;-70
2023/12/03 09:04:55;;;;;;;0.88;0.88;;;;;;;-2.98;84.14;97878.53;5039459;28;20056;-69
2023/12/03 09:07:24;;;;;;;1.30;1.30;;;;;;;-2.97;83.69;97877.59;5038401;28;20045;-70
2023/12/03 09:09:51;;;;;;;1.00;1.00;;;;;;;-2.97;84.17;97882.81;5040046;28;20033;-70
2023/12/03 09:12:19;;;;;;;1.15;1.15;;;;;;;-2.95;83.75;97888.78;5040753;28;20131;-70
2023/12/03 09:14:47;;;;;;;1.35;1.35;;;;;;;-2.86;84.36;97887.31;5038245;28;20459;-71
2023/12/03 09:17:14;;;;;;;1.20;1.20;;;;;;;-2.87;84.05;97881.25;5038636;28;20140;-69
2023/12/03 09:19:43;;;;;;;1.27;1.27;;;;;;;-2.81;83.36;97883.47;5040228;28;20041;-70
2023/12/03 09:22:11;;;;;;;0.28;0.28;;;;;;;-2.76;82.91;97883.97;5039953;28;20423;-73
2023/12/03 09:24:38;;;;;;;0.98;0.98;;;;;;;-2.77;82.71;97894.50;5038778;28;20045;-70
2023/12/03 09:27:06;;;;;;;0.98;0.98;;;;;;;-2.73;82.55;97894.22;5037570;28;20069;-71
2023/12/03 09:29:34;;;;;;;1.10;1.10;;;;;;;-2.79;82.21;97889.38;5040087;28;20037;-70
2023/12/03 09:32:01;;;;;;;1.15;1.15;;;;;;;-2.63;84.01;97905.69;5039975;28;20044;-70
2023/12/03 09:34:29;;;;;;;0.93;0.93;;;;;;;-2.59;82.56;97898.47;5038498;28;20041;-70
2023/12/03 09:36:58;;;;;;;1.50;1.50;;;;;;;-2.64;81.60;97897.97;5039392;28;20383;-69
2023/12/03 09:39:25;;;;;;;0.90;0.90;;;;;;;-2.69;82.50;97906.09;5038896;28;20540;-71
2023/12/03 09:41:54;;;;;;;0.47;0.47;;;;;;;-2.72;82.19;97908.09;5038384;28;20465;-71
2023/12/03 09:44:25;;;;;;;1.08;1.08;;;;;;;-2.66;82.63;97905.06;5040010;28;20056;-70
2023/12/03 09:46:54;;;;;;;1.05;1.05;;;;;;;-2.65;82.27;97914.56;5039409;28;20041;-72
2023/12/03 09:49:23;;;;;;;1.08;1.08;;;;;;;-2.67;81.73;97913.84;5039039;28;20547;-72
2023/12/03 09:51:51;;;;;;;1.23;1.23;;;;;;;-2.69;82.02;97906.09;5038129;28;20041;-71
2023/12/03 09:54:20;;;;;;;1.30;1.30;;;;;;;-2.57;82.63;97912.25;5040858;28;20119;-69
2023/12/03 09:56:50;;;;;;;0.95;0.95;;;;;;;-2.55;81.38;97918.22;5037811;28;20041;-72
2023/12/03 09:59:18;;;;;;;1.17;1.17;;;;;;;-2.57;80.81;97917.50;5035438;28;20052;-73
2023/12/03 10:01:46;;;;;;;1.25;1.25;;;;;;;-2.60;80.96;97915.94;5039423;28;20060;-71
2023/12/03 10:04:14;;;;;;;1.48;1.48;;;;;;;-2.56;80.27;97910.50;5039308;28;20087;-70
2023/12/03 10:06:43;;;;;;;1.08;1.08;;;;;;;-2.52;80.47;97917.19;5037067;28;20045;-71
2023/12/03 10:09:12;;;;;;;0.50;0.50;;;;;;;-2.46;80.22;97911.53;5038331;28;20399;-72
2023/12/03 10:11:42;;;;;;;1.10;1.10;;;;;;;-2.41;80.07;97920.75;5039494;28;20106;-71
2023/12/03 10:14:12;;;;;;;1.40;1.40;;;;;;;-2.43;80.41;97912.16;5039281;28;20045;-72
2023/12/03 10:16:40;;;;;;;1.25;1.25;;;;;;;-2.36;80.64;97912.56;5054978;28;20257;-72
2023/12/03 10:19:08;;;;;;;1.95;1.92;;;;;;;-2.36;79.84;97918.63;5039093;28;20048;-71
2023/12/03 10:21:35;;;;;;;1.13;1.13;;;;;;;-2.35;80.40;97919.47;5038543;28;20041;-72
2023/12/03 10:24:04;;;;;;;1.42;1.42;;;;;;;-2.32;79.93;97917.47;5054566;28;20053;-72
2023/12/03 10:26:32;;;;;;;0.30;0.30;;;;;;;-2.30;80.28;97917.38;5037866;28;20460;-71
2023/12/03 10:29:01;;;;;;;1.30;1.30;;;;;;;-2.31;79.84;97927.00;5036530;28;20509;-70
2023/12/03 10:31:32;;;;;;;1.33;1.33;;;;;;;-2.34;80.08;97914.13;5039622;28;20041;-72
2023/12/03 10:34:00;;;;;;;1.00;1.00;;;;;;;-2.29;80.03;97929.50;5039167;28;20041;-69
2023/12/03 10:36:30;;;;;;;1.40;1.40;;;;;;;-2.22;79.95;97925.50;5040658;28;20053;-70
2023/12/03 10:38:58;;;;;;;1.17;1.17;;;;;;;-2.26;79.79;97924.88;5043638;28;20053;-73
2023/12/03 10:41:25;;;;;;;1.20;1.20;;;;;;;-2.17;79.76;97931.25;5043074;28;20494;-70
2023/12/03 10:43:53;;;;;;;1.15;1.15;;;;;;;-2.29;79.04;97926.91;5042390;28;20128;-73
2023/12/03 10:46:22;;;;;;;1.40;1.40;;;;;;;-2.30;79.70;97933.06;5042141;28;20047;-70
2023/12/03 10:48:50;;;;;;;0.88;0.88;;;;;;;-2.24;79.49;97937.84;5042800;28;20052;-70
2023/12/03 10:51:18;;;;;;;1.30;1.30;;;;;;;-2.26;79.74;97935.34;5042772;28;20067;-71
2023/12/03 10:53:46;;;;;;;1.25;1.25;;;;;;;-2.31;79.55;97934.00;5043210;22;20041;-73
2023/12/03 10:56:14;;;;;;;1.15;1.15;;;;;;;-2.33;80.28;97926.25;5022724;28;20049;-73
2023/12/03 10:58:42;;;;;;;1.35;1.35;;;;;;;-2.35;80.31;97925.53;5022095;28;20045;-72
2023/12/03 11:01:17;;;;;;;1.15;1.15;;;;;;;-2.28;80.54;97934.59;5020982;28;20121;-72
2023/12/03 11:03:56;;;;;;;1.05;1.05;;;;;;;-2.33;79.97;97928.03;5005734;28;20052;-72
2023/12/03 11:06:25;;;;;;;1.05;1.05;;;;;;;-2.45;80.98;97939.34;5002634;28;20061;-72
2023/12/03 11:08:55;;;;;;;1.08;1.08;;;;;;;-2.42;80.49;97936.50;5003025;28;20060;-72
2023/12/03 11:11:23;;;;;;;2.17;2.10;;;;;;;-2.48;80.79;97934.31;5003184;28;20046;-72
2023/12/03 11:13:52;;;;;;;1.77;1.77;;;;;;;-2.39;81.19;97933.69;5003563;28;20104;-72
2023/12/03 11:16:20;;;;;;;0.30;0.30;;;;;;;-2.36;80.87;97933.47;5003100;28;20417;-72
2023/12/03 11:18:52;;;;;;;1.38;1.38;;;;;;;-2.42;80.62;97933.91;5003423;28;20058;-72
2023/12/03 11:21:33;;;;;;;0.82;0.82;;;;;;;-2.40;80.80;97952.94;5003677;28;20046;-72
2023/12/03 11:24:12;;;;;;;1.20;1.20;;;;;;;-2.42;81.72;97957.41;5002837;28;20561;-72
2023/12/03 11:26:42;;;;;;;1.10;1.10;;;;;;;-2.48;82.29;97953.44;5002004;28;20046;-72
2023/12/03 11:29:10;;;;;;;1.10;1.10;;;;;;;-2.49;82.95;97949.16;5002707;28;20038;-73
2023/12/03 11:31:38;;;;;;;1.25;1.25;;;;;;;-2.50;82.04;97957.94;5002503;28;20176;-73
2023/12/03 11:34:06;;;;;;;1.48;1.48;;;;;;;-2.43;81.59;97950.53;5002293;28;20133;-72
2023/12/03 11:36:36;;;;;;;1.45;1.45;;;;;;;-2.48;81.56;97957.81;5006988;28;20037;-72
2023/12/03 11:39:04;;;;;;;1.17;1.17;;;;;;;-2.44;82.12;97951.47;5013764;28;20050;-72